Flight Track Log - Related Links

Times and Time Zones

All times are in EDT time to prevent confusion due to time zone crossing. See the SLI2466 flight status page for this flight to view local times or setup timezone preferences in your user account.

Time Position Orientation Groundspeed Altitude Reporting Facility
EDT Latitude Longitude Course Direction KTS MPH feet Rate Location/Type
Mon 01:21:00 PM 18.1426 -92.6648 45° Northeast  Level Estimated
Mon 01:22:00 PM 18.1911 -92.6139 45° Northeast  Level Estimated
Mon 01:23:00 PM 18.2396 -92.5630 45° Northeast  Level Estimated
Mon 01:24:00 PM 18.2881 -92.5120 45° Northeast  Level Estimated
Mon 01:25:00 PM 18.3365 -92.4611 45° Northeast  Level Estimated
Mon 01:26:00 PM 18.3850 -92.4100 45° Northeast  Level Estimated
Mon 01:27:00 PM 18.4334 -92.3590 45° Northeast  Level Estimated
Mon 01:28:00 PM 18.4818 -92.3079 45° Northeast  Level Estimated
Mon 01:29:00 PM 18.5302 -92.2568 45° Northeast  Level Estimated
Mon 01:30:00 PM 18.5786 -92.2057 45° Northeast  Level Estimated
Mon 01:31:00 PM 18.6270 -92.1545 45° Northeast  Level Estimated
Mon 01:32:00 PM 18.6754 -92.1033 45° Northeast  Level Estimated
Mon 01:33:00 PM 18.7237 -92.0521 45° Northeast  Level Estimated
Mon 01:34:00 PM 18.7721 -92.0009 45° Northeast  Level Estimated
Mon 01:35:00 PM 18.8204 -91.9496 45° Northeast  Level Estimated
Mon 01:36:00 PM 18.8687 -91.8983 45° Northeast  Level Estimated
Mon 01:37:00 PM 18.9170 -91.8469 45° Northeast  Level Estimated
Mon 01:38:00 PM 18.9653 -91.7956 45° Northeast  Level Estimated
Mon 01:39:00 PM 19.0136 -91.7442 45° Northeast  Level Estimated
Mon 01:40:00 PM 19.0618 -91.6928 45° Northeast  Level Estimated
Mon 01:41:00 PM 19.1101 -91.6413 45° Northeast  Level Estimated
Mon 01:42:00 PM 19.1583 -91.5898 45° Northeast  Level Estimated
Mon 01:43:00 PM 19.2065 -91.5383 45° Northeast  Level Estimated
Mon 01:44:00 PM 19.2547 -91.4868 45° Northeast  Level Estimated
Mon 01:45:00 PM 19.3029 -91.4352 45° Northeast  Level Estimated
Mon 01:46:00 PM 19.3511 -91.3836 45° Northeast  Level Estimated
Mon 01:47:00 PM 19.3992 -91.3319 45° Northeast  Level Estimated
Mon 01:48:00 PM 19.4473 -91.2803 45° Northeast  Level Estimated
Mon 01:49:00 PM 19.4955 -91.2286 45° Northeast  Level Estimated
Mon 01:50:00 PM 19.5436 -91.1768 45° Northeast  Level Estimated
Mon 01:51:00 PM 19.5917 -91.1251 45° Northeast  Level Estimated
Mon 01:52:00 PM 19.6398 -91.0733 45° Northeast  Level Estimated
Mon 01:53:00 PM 19.6878 -91.0215 45° Northeast  Level Estimated
Mon 01:54:00 PM 19.7359 -90.9696 45° Northeast  Level Estimated
Mon 01:55:00 PM 19.7839 -90.9177 45° Northeast  Level Estimated
Mon 01:56:00 PM 19.8319 -90.8658 45° Northeast  Level Estimated
Mon 01:57:00 PM 19.8800 -90.8139 45° Northeast  Level Estimated
Mon 01:58:00 PM 19.9279 -90.7619 46° Northeast  Level Estimated
Mon 01:59:00 PM 19.9759 -90.7099 46° Northeast  Level Estimated
Mon 02:00:00 PM 20.0239 -90.6579 46° Northeast  Level Estimated
Mon 02:01:00 PM 20.0718 -90.6058 46° Northeast  Level Estimated
Mon 02:02:00 PM 20.1198 -90.5537 46° Northeast  Level Estimated
Mon 02:03:00 PM 20.1677 -90.5015 46° Northeast  Level Estimated
Mon 02:04:00 PM 20.2156 -90.4494 46° Northeast  Level Estimated
Mon 02:05:00 PM 20.2635 -90.3972 46° Northeast  Level Estimated
Mon 02:06:00 PM 20.3113 -90.3449 46° Northeast  Level Estimated
Mon 02:07:00 PM 20.3592 -90.2927 46° Northeast  Level Estimated
Mon 02:08:00 PM 20.4070 -90.2404 46° Northeast  Level Estimated
Mon 02:09:00 PM 20.4548 -90.1880 46° Northeast  Level Estimated
Mon 02:10:00 PM 20.5027 -90.1357 46° Northeast  Level Estimated
Mon 02:11:00 PM 20.5504 -90.0833 46° Northeast  Level Estimated
Mon 02:12:00 PM 20.5982 -90.0309 46° Northeast  Level Estimated
Mon 02:13:00 PM 20.6460 -89.9784 46° Northeast  Level Estimated
Mon 02:14:00 PM 20.6937 -89.9259 46° Northeast  Level Estimated
Mon 02:15:00 PM 20.7415 -89.8734 46° Northeast  Level Estimated
Mon 02:16:00 PM 20.7892 -89.8208 46° Northeast  Level Estimated
Mon 02:17:00 PM 20.8369 -89.7682 46° Northeast  Level Estimated
Mon 02:18:00 PM 20.8846 -89.7156 46° Northeast  Level Estimated
Mon 02:19:00 PM 20.9322 -89.6629 46° Northeast  Level Estimated
Mon 02:20:00 PM 20.9370 -89.6577 46° Northeast  Level Estimated
Mon 02:21:00 PM 20.9370 -89.6577 298° West  Level Estimated
Mon 02:22:00 PM 20.9370 -89.6577 298° West  Level Estimated
Mon 02:23:00 PM 20.9370 -89.6577 298° West  Level Estimated
Mon 02:24:00 PM 20.9370 -89.6577 298° West  Level Estimated
Mon 02:25:00 PM 20.9370 -89.6577 298° West  Level Estimated
Mon 02:26:00 PM 20.9370 -89.6577 298° West  Level Estimated
Mon 02:27:00 PM 20.9370 -89.6577 298° West  Level Estimated
Mon 02:28:00 PM 20.9370 -89.6577 298° West  Level Estimated
Mon 02:29:00 PM 20.9370 -89.6577 298° West  Level Estimated
Mon 02:30:00 PM 20.9370 -89.6577 298° West  Level Estimated
Mon 02:31:00 PM 20.9370 -89.6577 298° West  Level Estimated
Mon 02:32:00 PM 20.9370 -89.6577 298° West  Level Estimated
Mon 02:33:00 PM 20.9370 -89.6577 298° West  Level Estimated
Mon 02:34:00 PM 20.9370 -89.6577 298° West  Level Estimated
Mon 02:35:00 PM 20.9370 -89.6577 298° West  Level Estimated

Login

Don't have an account? Register now (free) for customized features, flight alerts, and more!